Time,TemperatureF,DewpointF,PressureIn,WindDirection,WindDirectionDegrees,WindSpeedMPH,WindSpeedGustMPH,Humidity,HourlyPrecipIn,Conditions,Clouds,dailyrainin,SoftwareType,DateUTC
2013-03-19 00:02:00,42.0,38.0,-100.00,SSW,202,0.0,0.0,84,0.00,,,0.00,,2013-03-19 07:02:00,
2013-03-19 00:12:00,42.0,38.0,-100.00,SSW,202,0.0,0.0,84,0.00,,,0.00,,2013-03-19 07:12:00,
2013-03-19 00:21:00,42.0,38.0,-100.00,SSW,202,0.0,0.0,84,0.00,,,0.00,,2013-03-19 07:21:00,
2013-03-19 00:52:00,39.0,37.0,-100.00,SE,127,0.0,0.0,91,0.00,,,0.00,,2013-03-19 07:52:00,
2013-03-19 01:02:00,39.0,37.0,-100.00,SE,127,0.0,0.0,91,0.00,,,0.00,,2013-03-19 08:02:00,
2013-03-19 01:12:00,39.0,37.0,-100.00,SE,127,0.0,0.0,91,0.00,,,0.00,,2013-03-19 08:12:00,
2013-03-19 01:21:00,39.0,37.0,-100.00,SE,127,0.0,0.0,91,0.00,,,0.00,,2013-03-19 08:21:00,
2013-03-19 01:52:00,35.0,34.0,-100.00,SSE,155,0.0,0.0,95,0.00,,,0.00,,2013-03-19 08:52:00,
2013-03-19 02:53:00,35.0,34.0,-100.00,SE,139,0.0,0.0,98,0.00,,,0.00,,2013-03-19 09:53:00,
2013-03-19 03:03:00,35.0,34.0,-100.00,SE,139,0.0,0.0,98,0.00,,,0.00,,2013-03-19 10:03:00,
2013-03-19 03:12:00,35.0,34.0,-100.00,SE,139,0.0,0.0,98,0.00,,,0.00,,2013-03-19 10:12:00,
2013-03-19 03:22:00,35.0,34.0,-100.00,SE,139,0.0,0.0,98,0.00,,,0.00,,2013-03-19 10:22:00,
2013-03-19 03:53:00,32.0,32.0,-100.00,South,182,0.0,2.0,99,-99.99,,,0.00,,2013-03-19 10:53:00,
2013-03-19 04:52:00,33.0,33.0,-100.00,North,11,0.0,4.0,100,-99.99,,,0.00,,2013-03-19 11:52:00,
2013-03-19 05:52:00,35.0,34.0,-100.00,East,81,0.0,4.0,96,-99.99,,,0.00,,2013-03-19 12:52:00,
2013-03-19 06:02:00,35.0,34.0,-100.00,East,81,0.0,4.0,96,-99.99,,,0.00,,2013-03-19 13:02:00,
2013-03-19 06:12:00,35.0,34.0,-100.00,East,81,0.0,4.0,96,-99.99,,,0.00,,2013-03-19 13:12:00,
2013-03-19 06:22:00,35.0,34.0,-100.00,East,81,0.0,4.0,96,-99.99,,,0.00,,2013-03-19 13:22:00,
2013-03-19 06:52:00,42.0,36.0,-100.00,NNE,13,0.0,4.0,80,0.00,,,0.00,,2013-03-19 13:52:00,
2013-03-19 07:02:00,42.0,36.0,-100.00,NNE,13,0.0,4.0,80,0.00,,,0.00,,2013-03-19 14:02:00,
2013-03-19 07:12:00,42.0,36.0,-100.00,NNE,13,0.0,4.0,80,0.00,,,0.00,,2013-03-19 14:12:00,
2013-03-19 07:22:00,42.0,36.0,-100.00,NNE,13,0.0,4.0,80,0.00,,,0.00,,2013-03-19 14:22:00,
2013-03-19 07:52:00,42.0,34.0,-100.00,NNE,23,1.0,8.0,72,0.00,,,0.00,,2013-03-19 14:52:00,
2013-03-19 08:02:00,42.0,34.0,-100.00,NNE,23,1.0,8.0,72,0.00,,,0.00,,2013-03-19 15:02:00,
2013-03-19 08:12:00,42.0,34.0,-100.00,NNE,23,1.0,8.0,72,0.00,,,0.00,,2013-03-19 15:12:00,
2013-03-19 08:21:00,42.0,34.0,-100.00,NNE,23,1.0,8.0,72,0.00,,,0.00,,2013-03-19 15:21:00,
2013-03-19 08:53:00,57.0,34.0,-100.00,ENE,78,1.0,9.0,41,0.00,,,0.00,,2013-03-19 15:53:00,
2013-03-19 09:03:00,57.0,34.0,-100.00,ENE,78,1.0,9.0,41,0.00,,,0.00,,2013-03-19 16:03:00,
2013-03-19 09:13:00,57.0,34.0,-100.00,ENE,78,1.0,9.0,41,0.00,,,0.00,,2013-03-19 16:13:00,
2013-03-19 09:23:00,57.0,34.0,-100.00,ENE,78,1.0,9.0,41,0.00,,,0.00,,2013-03-19 16:23:00,
2013-03-19 09:54:00,63.0,31.0,-100.00,NNW,346,4.0,12.0,30,0.00,,,0.00,,2013-03-19 16:54:00,
2013-03-19 10:02:00,63.0,31.0,-100.00,NNW,346,4.0,12.0,30,0.00,,,0.00,,2013-03-19 17:02:00,
2013-03-19 10:23:00,63.0,31.0,-100.00,NNW,346,4.0,12.0,30,0.00,,,0.00,,2013-03-19 17:23:00,
2013-03-19 10:53:00,64.0,28.0,-100.00,NW,319,6.0,15.0,26,0.00,,,0.00,,2013-03-19 17:53:00,
2013-03-19 11:02:00,64.0,28.0,-100.00,NW,319,6.0,15.0,26,0.00,,,0.00,,2013-03-19 18:02:00,
2013-03-19 11:13:00,64.0,28.0,-100.00,NW,319,6.0,15.0,26,0.00,,,0.00,,2013-03-19 18:13:00,
2013-03-19 11:23:00,64.0,28.0,-100.00,NW,319,6.0,15.0,26,0.00,,,0.00,,2013-03-19 18:23:00,
2013-03-19 11:53:00,67.0,31.0,-100.00,NNW,345,5.0,23.0,26,0.00,,,0.00,,2013-03-19 18:53:00,
2013-03-19 12:02:00,67.0,31.0,-100.00,NNW,345,5.0,23.0,26,0.00,,,0.00,,2013-03-19 19:02:00,
2013-03-19 12:12:00,67.0,31.0,-100.00,NNW,345,5.0,23.0,26,0.00,,,0.00,,2013-03-19 19:12:00,
2013-03-19 12:22:00,67.0,31.0,-100.00,NNW,345,5.0,23.0,26,0.00,,,0.00,,2013-03-19 19:22:00,
2013-03-19 12:53:00,67.0,27.0,-100.00,WNW,290,5.0,14.0,22,0.00,,,0.00,,2013-03-19 19:53:00,
2013-03-19 13:02:00,67.0,27.0,-100.00,WNW,290,5.0,14.0,22,0.00,,,0.00,,2013-03-19 20:02:00,
2013-03-19 13:12:00,67.0,27.0,-100.00,WNW,290,5.0,14.0,22,0.00,,,0.00,,2013-03-19 20:12:00,
2013-03-19 13:22:00,67.0,27.0,-100.00,WNW,290,5.0,14.0,22,0.00,,,0.00,,2013-03-19 20:22:00,
2013-03-19 13:53:00,68.0,29.0,-100.00,WNW,287,5.0,17.0,23,0.00,,,0.00,,2013-03-19 20:53:00,
2013-03-19 14:02:00,68.0,29.0,-100.00,WNW,287,5.0,17.0,23,0.00,,,0.00,,2013-03-19 21:02:00,
2013-03-19 14:11:00,68.0,29.0,-100.00,WNW,287,5.0,17.0,23,0.00,,,0.00,,2013-03-19 21:11:00,
2013-03-19 14:22:00,68.0,29.0,-100.00,WNW,287,5.0,17.0,23,0.00,,,0.00,,2013-03-19 21:22:00,
2013-03-19 14:53:00,69.0,32.0,-100.00,NNW,337,3.0,13.0,25,0.00,,,0.00,,2013-03-19 21:53:00,
2013-03-19 15:03:00,69.0,32.0,-100.00,NNW,337,3.0,13.0,25,0.00,,,0.00,,2013-03-19 22:03:00,
2013-03-19 15:12:00,69.0,32.0,-100.00,NNW,337,3.0,13.0,25,0.00,,,0.00,,2013-03-19 22:12:00,
2013-03-19 15:22:00,69.0,32.0,-100.00,NNW,337,3.0,13.0,25,0.00,,,0.00,,2013-03-19 22:22:00,
2013-03-19 15:53:00,69.0,33.0,-100.00,NW,320,4.0,11.0,26,0.00,,,0.00,,2013-03-19 22:53:00,
2013-03-19 16:02:00,69.0,33.0,-100.00,NW,320,4.0,11.0,26,0.00,,,0.00,,2013-03-19 23:02:00,
2013-03-19 16:12:00,69.0,33.0,-100.00,NW,320,4.0,11.0,26,0.00,,,0.00,,2013-03-19 23:12:00,
2013-03-19 16:22:00,69.0,33.0,-100.00,NW,320,4.0,11.0,26,0.00,,,0.00,,2013-03-19 23:22:00,
2013-03-19 16:52:00,67.0,32.0,-100.00,ENE,59,3.0,12.0,27,0.00,,,0.00,,2013-03-19 23:52:00,
2013-03-19 17:02:00,67.0,32.0,-100.00,ENE,59,3.0,12.0,27,0.00,,,0.00,,2013-03-20 00:02:00,
2013-03-19 17:12:00,67.0,32.0,-100.00,ENE,59,3.0,12.0,27,0.00,,,0.00,,2013-03-20 00:12:00,
2013-03-19 17:22:00,67.0,32.0,-100.00,ENE,59,3.0,12.0,27,0.00,,,0.00,,2013-03-20 00:22:00,
2013-03-19 17:52:00,65.0,37.0,-100.00,NW,311,3.0,10.0,35,0.00,,,0.00,,2013-03-20 00:52:00,
2013-03-19 18:02:00,65.0,37.0,-100.00,NW,311,3.0,10.0,35,0.00,,,0.00,,2013-03-20 01:02:00,
2013-03-19 18:12:00,65.0,37.0,-100.00,NW,311,3.0,10.0,35,0.00,,,0.00,,2013-03-20 01:12:00,
2013-03-19 18:22:00,65.0,37.0,-100.00,NW,311,3.0,10.0,35,0.00,,,0.00,,2013-03-20 01:22:00,
2013-03-19 18:52:00,58.0,43.0,-100.00,NNW,327,3.0,9.0,58,0.00,,,0.00,,2013-03-20 01:52:00,
2013-03-19 19:02:00,58.0,43.0,-100.00,NNW,327,3.0,9.0,58,0.00,,,0.00,,2013-03-20 02:02:00,
2013-03-19 19:11:00,58.0,43.0,-100.00,NNW,327,3.0,9.0,58,0.00,,,0.00,,2013-03-20 02:11:00,
2013-03-19 19:21:00,58.0,43.0,-100.00,NNW,327,3.0,9.0,58,0.00,,,0.00,,2013-03-20 02:21:00,
2013-03-19 19:53:00,52.0,44.0,-100.00,North,357,0.0,7.0,75,0.00,,,0.00,,2013-03-20 02:53:00,
2013-03-19 20:02:00,52.0,44.0,-100.00,North,357,0.0,7.0,75,0.00,,,0.00,,2013-03-20 03:02:00,
2013-03-19 20:12:00,52.0,44.0,-100.00,North,357,0.0,7.0,75,0.00,,,0.00,,2013-03-20 03:12:00,
2013-03-19 20:22:00,52.0,44.0,-100.00,North,357,0.0,7.0,75,0.00,,,0.00,,2013-03-20 03:22:00,
2013-03-19 20:53:00,49.0,44.0,-100.00,WNW,298,0.0,4.0,82,0.00,,,0.00,,2013-03-20 03:53:00,
2013-03-19 21:02:00,49.0,44.0,-100.00,WNW,298,0.0,4.0,82,0.00,,,0.00,,2013-03-20 04:02:00,
2013-03-19 21:12:00,49.0,44.0,-100.00,WNW,298,0.0,4.0,82,0.00,,,0.00,,2013-03-20 04:12:00,
2013-03-19 21:22:00,49.0,44.0,-100.00,WNW,298,0.0,4.0,82,0.00,,,0.00,,2013-03-20 04:22:00,
2013-03-19 21:52:00,45.0,40.0,-100.00,NNE,23,0.0,0.0,84,0.00,,,0.00,,2013-03-20 04:52:00,
2013-03-19 22:02:00,45.0,40.0,-100.00,NNE,23,0.0,0.0,84,0.00,,,0.00,,2013-03-20 05:02:00,
2013-03-19 22:12:00,45.0,40.0,-100.00,NNE,23,0.0,0.0,84,0.00,,,0.00,,2013-03-20 05:12:00,
2013-03-19 22:22:00,45.0,40.0,-100.00,NNE,23,0.0,0.0,84,0.00,,,0.00,,2013-03-20 05:22:00,
2013-03-19 22:53:00,44.0,41.0,-100.00,NW,323,0.0,0.0,89,0.00,,,0.00,,2013-03-20 05:53:00,
2013-03-19 23:02:00,44.0,41.0,-100.00,NW,323,0.0,0.0,89,0.00,,,0.00,,2013-03-20 06:02:00,
2013-03-19 23:12:00,44.0,41.0,-100.00,NW,323,0.0,0.0,89,0.00,,,0.00,,2013-03-20 06:12:00,
2013-03-19 23:21:00,44.0,41.0,-100.00,NW,323,0.0,0.0,89,0.00,,,0.00,,2013-03-20 06:21:00,
2013-03-19 23:52:00,40.0,38.0,-100.00,ENE,71,0.0,0.0,94,0.00,,,0.00,,2013-03-20 06:52:00,